sensor_id;sensor_type;location;lat;lon;timestamp;pressure;altitude;pressure_sealevel;temperature;humidity
48778;BME280;34578;0.000;0.000;2023-09-19T00:04:14;96483.91;;;21.85;60.59
48778;BME280;34578;0.000;0.000;2023-09-19T00:09:17;96480.53;;;21.84;60.54
48778;BME280;34578;0.000;0.000;2023-09-19T00:14:17;96492.41;;;21.85;60.69
48778;BME280;34578;0.000;0.000;2023-09-19T00:19:17;96480.53;;;21.84;60.78
48778;BME280;34578;0.000;0.000;2023-09-19T00:24:17;96489.88;;;21.85;60.63
48778;BME280;34578;0.000;0.000;2023-09-19T00:29:18;96489.06;;;21.83;60.49
48778;BME280;34578;0.000;0.000;2023-09-19T00:34:19;96488.19;;;21.84;60.54
48778;BME280;34578;0.000;0.000;2023-09-19T00:39:20;96480.53;;;21.84;60.54
48778;BME280;34578;0.000;0.000;2023-09-19T00:44:22;96483.97;;;21.83;60.90
48778;BME280;34578;0.000;0.000;2023-09-19T00:49:24;96489.06;;;21.83;60.53
48778;BME280;34578;0.000;0.000;2023-09-19T00:54:25;96490.75;;;21.84;60.50
48778;BME280;34578;0.000;0.000;2023-09-19T00:59:27;96484.81;;;21.82;60.65
48778;BME280;34578;0.000;0.000;2023-09-19T01:04:27;96494.16;;;21.83;60.50
48778;BME280;34578;0.000;0.000;2023-09-19T01:09:28;96494.16;;;21.83;60.60
48778;BME280;34578;0.000;0.000;2023-09-19T01:15:03;96498.41;;;21.83;60.49
48778;BME280;34578;0.000;0.000;2023-09-19T01:20:35;96498.41;;;21.83;60.58
48778;BME280;34578;0.000;0.000;2023-09-19T01:26:06;96491.63;;;21.82;60.60
48778;BME280;34578;0.000;0.000;2023-09-19T01:31:11;96492.53;;;21.78;60.56
48778;BME280;34578;0.000;0.000;2023-09-19T01:36:12;96508.59;;;21.84;60.71
48778;BME280;34578;0.000;0.000;2023-09-19T01:41:19;96505.16;;;21.85;60.99
48778;BME280;34578;0.000;0.000;2023-09-19T01:46:33;96505.13;;;21.87;60.57
48778;BME280;34578;0.000;0.000;2023-09-19T01:51:46;96499.19;;;21.86;60.71
48778;BME280;34578;0.000;0.000;2023-09-19T01:57:14;96504.28;;;21.86;60.45
48778;BME280;34578;0.000;0.000;2023-09-19T02:02:17;96498.38;;;21.84;60.57
48778;BME280;34578;0.000;0.000;2023-09-19T02:07:17;96510.22;;;21.87;60.60
48778;BME280;34578;0.000;0.000;2023-09-19T02:12:18;96513.63;;;21.86;60.50
48778;BME280;34578;0.000;0.000;2023-09-19T02:17:18;96514.50;;;21.86;60.31
48778;BME280;34578;0.000;0.000;2023-09-19T02:22:19;96521.28;;;21.86;60.41
48778;BME280;34578;0.000;0.000;2023-09-19T02:27:19;96524.69;;;21.86;60.36
48778;BME280;34578;0.000;0.000;2023-09-19T02:32:20;96526.44;;;21.84;60.20
48778;BME280;34578;0.000;0.000;2023-09-19T02:37:21;96539.09;;;21.87;60.29
48778;BME280;34578;0.000;0.000;2023-09-19T02:42:22;96524.63;;;21.89;60.16
48778;BME280;34578;0.000;0.000;2023-09-19T02:47:23;96523.75;;;21.90;60.21
48778;BME280;34578;0.000;0.000;2023-09-19T02:52:23;96528.81;;;21.93;59.77
48778;BME280;34578;0.000;0.000;2023-09-19T02:57:25;96535.63;;;21.93;59.54
48778;BME280;34578;0.000;0.000;2023-09-19T03:02:25;96533.06;;;21.91;59.91
48778;BME280;34578;0.000;0.000;2023-09-19T03:07:28;96517.78;;;21.91;60.10
48778;BME280;34578;0.000;0.000;2023-09-19T03:12:28;96522.88;;;21.91;60.04
48778;BME280;34578;0.000;0.000;2023-09-19T03:17:29;96534.78;;;21.92;60.24
48778;BME280;34578;0.000;0.000;2023-09-19T03:22:29;96544.13;;;21.93;60.25
48778;BME280;34578;0.000;0.000;2023-09-19T03:27:30;96540.69;;;21.94;60.34
48778;BME280;34578;0.000;0.000;2023-09-19T03:32:30;96547.50;;;21.94;60.37
48778;BME280;34578;0.000;0.000;2023-09-19T03:37:31;96541.56;;;21.93;60.26
48778;BME280;34578;0.000;0.000;2023-09-19T03:42:33;96542.38;;;21.94;60.34
48778;BME280;34578;0.000;0.000;2023-09-19T03:47:37;96527.16;;;21.91;60.31
48778;BME280;34578;0.000;0.000;2023-09-19T03:52:38;96534.78;;;21.92;60.38
48778;BME280;34578;0.000;0.000;2023-09-19T03:57:38;96523.00;;;21.85;60.30
48778;BME280;34578;0.000;0.000;2023-09-19T04:02:39;96530.56;;;21.90;60.26
48778;BME280;34578;0.000;0.000;2023-09-19T04:07:40;96532.25;;;21.91;60.34
48778;BME280;34578;0.000;0.000;2023-09-19T04:12:50;96545.00;;;21.92;60.37
48778;BME280;34578;0.000;0.000;2023-09-19T04:17:51;96553.47;;;21.91;60.35
48778;BME280;34578;0.000;0.000;2023-09-19T04:22:52;96539.91;;;21.91;60.32
48778;BME280;34578;0.000;0.000;2023-09-19T04:27:52;96548.38;;;21.91;60.31
48778;BME280;34578;0.000;0.000;2023-09-19T04:32:52;96545.00;;;21.91;60.38
48778;BME280;34578;0.000;0.000;2023-09-19T04:37:53;96549.28;;;21.89;60.52
48778;BME280;34578;0.000;0.000;2023-09-19T04:42:56;96556.88;;;21.90;60.37
48778;BME280;34578;0.000;0.000;2023-09-19T04:48:00;96561.19;;;21.87;60.84
48778;BME280;34578;0.000;0.000;2023-09-19T04:53:00;96576.06;;;21.59;62.25
48778;BME280;34578;0.000;0.000;2023-09-19T04:58:01;96583.59;;;21.67;61.85
48778;BME280;34578;0.000;0.000;2023-09-19T05:03:02;96580.03;;;21.80;61.22
48778;BME280;34578;0.000;0.000;2023-09-19T05:08:04;96591.09;;;21.77;62.01
48778;BME280;34578;0.000;0.000;2023-09-19T05:13:07;96582.50;;;21.84;61.10
48778;BME280;34578;0.000;0.000;2023-09-19T05:18:08;96582.53;;;21.81;61.81
48778;BME280;34578;0.000;0.000;2023-09-19T05:23:08;96589.41;;;21.76;61.99
48778;BME280;34578;0.000;0.000;2023-09-19T05:28:10;96596.34;;;21.68;61.78
48778;BME280;34578;0.000;0.000;2023-09-19T05:33:11;96596.50;;;21.53;62.71
48778;BME280;34578;0.000;0.000;2023-09-19T05:38:13;96603.16;;;21.63;62.31
48778;BME280;34578;0.000;0.000;2023-09-19T05:43:14;96620.00;;;21.76;61.70
48778;BME280;34578;0.000;0.000;2023-09-19T05:48:14;96631.81;;;21.80;61.36
48778;BME280;34578;0.000;0.000;2023-09-19T05:53:15;96639.44;;;21.82;61.22
48778;BME280;34578;0.000;0.000;2023-09-19T05:58:16;96635.22;;;21.79;61.05
48778;BME280;34578;0.000;0.000;2023-09-19T06:03:17;96642.00;;;21.83;61.08
48778;BME280;34578;0.000;0.000;2023-09-19T06:08:19;96644.53;;;21.83;61.04
48778;BME280;34578;0.000;0.000;2023-09-19T06:13:19;96642.00;;;21.83;61.04
48778;BME280;34578;0.000;0.000;2023-09-19T06:18:20;96659.84;;;21.83;60.69
48778;BME280;34578;0.000;0.000;2023-09-19T06:23:20;96655.56;;;21.82;60.88
48778;BME280;34578;0.000;0.000;2023-09-19T06:28:21;96662.38;;;21.83;60.78
48778;BME280;34578;0.000;0.000;2023-09-19T06:33:25;96667.47;;;21.83;60.91
48778;BME280;34578;0.000;0.000;2023-09-19T06:38:26;96669.16;;;21.83;60.95
48778;BME280;34578;0.000;0.000;2023-09-19T06:43:27;96668.31;;;21.82;60.90
48778;BME280;34578;0.000;0.000;2023-09-19T06:48:29;96670.03;;;21.83;60.68
48778;BME280;34578;0.000;0.000;2023-09-19T06:53:30;96674.28;;;21.83;60.86
48778;BME280;34578;0.000;0.000;2023-09-19T06:58:32;96676.81;;;21.81;60.63
48778;BME280;34578;0.000;0.000;2023-09-19T07:03:32;96680.22;;;21.82;60.96
48778;BME280;34578;0.000;0.000;2023-09-19T07:08:33;96679.38;;;21.81;60.77
48778;BME280;34578;0.000;0.000;2023-09-19T07:13:34;96683.59;;;21.82;60.74
48778;BME280;34578;0.000;0.000;2023-09-19T07:18:35;96686.16;;;21.82;60.71
48778;BME280;34578;0.000;0.000;2023-09-19T07:23:36;96695.53;;;21.82;60.75
48778;BME280;34578;0.000;0.000;2023-09-19T07:28:38;96694.66;;;21.81;60.78
48778;BME280;34578;0.000;0.000;2023-09-19T07:33:39;96692.97;;;21.82;60.96
48778;BME280;34578;0.000;0.000;2023-09-19T07:38:40;96693.00;;;21.80;60.89
48778;BME280;34578;0.000;0.000;2023-09-19T07:43:41;96701.44;;;21.82;60.84
48778;BME280;34578;0.000;0.000;2023-09-19T07:48:41;96705.72;;;21.82;60.77
48778;BME280;34578;0.000;0.000;2023-09-19T07:53:47;96707.41;;;21.81;60.88
48778;BME280;34578;0.000;0.000;2023-09-19T07:58:48;96713.38;;;21.80;60.78
48778;BME280;34578;0.000;0.000;2023-09-19T08:03:48;96720.16;;;21.81;60.82
48778;BME280;34578;0.000;0.000;2023-09-19T08:08:51;96717.66;;;21.80;60.63
48778;BME280;34578;0.000;0.000;2023-09-19T08:13:53;96734.63;;;21.81;60.59
48778;BME280;34578;0.000;0.000;2023-09-19T08:18:54;96738.88;;;21.80;60.64
48778;BME280;34578;0.000;0.000;2023-09-19T08:23:55;96740.53;;;21.81;60.84
48778;BME280;34578;0.000;0.000;2023-09-19T08:28:57;96740.53;;;21.81;60.84
48778;BME280;34578;0.000;0.000;2023-09-19T08:33:58;96748.22;;;21.80;60.75
48778;BME280;34578;0.000;0.000;2023-09-19T08:38:58;96754.16;;;21.80;60.61
48778;BME280;34578;0.000;0.000;2023-09-19T08:43:59;96755.84;;;21.81;60.75
48778;BME280;34578;0.000;0.000;2023-09-19T08:49:05;96765.22;;;21.79;60.70
48778;BME280;34578;0.000;0.000;2023-09-19T08:54:14;96767.78;;;21.79;60.69
48778;BME280;34578;0.000;0.000;2023-09-19T08:59:21;96769.44;;;21.80;60.66
48778;BME280;34578;0.000;0.000;2023-09-19T09:04:24;96773.72;;;21.80;60.74
48778;BME280;34578;0.000;0.000;2023-09-19T09:09:28;96772.00;;;21.80;60.64
48778;BME280;34578;0.000;0.000;2023-09-19T09:14:28;96766.91;;;21.80;60.61
48778;BME280;34578;0.000;0.000;2023-09-19T09:19:30;96773.72;;;21.78;60.69
48778;BME280;34578;0.000;0.000;2023-09-19T09:24:31;96771.19;;;21.78;60.75
48778;BME280;34578;0.000;0.000;2023-09-19T09:29:47;96772.88;;;21.79;60.78
48778;BME280;34578;0.000;0.000;2023-09-19T09:34:52;96765.28;;;21.75;60.68
48778;BME280;34578;0.000;0.000;2023-09-19T09:39:59;96772.88;;;21.79;60.63
48778;BME280;34578;0.000;0.000;2023-09-19T09:45:21;96772.00;;;21.79;60.72
48778;BME280;34578;0.000;0.000;2023-09-19T09:50:48;96776.28;;;21.78;60.67
48778;BME280;34578;0.000;0.000;2023-09-19T10:01:00;96764.41;;;21.77;60.60
48778;BME280;34578;0.000;0.000;2023-09-19T10:06:03;96769.44;;;21.80;60.75
48778;BME280;34578;0.000;0.000;2023-09-19T10:11:17;96749.94;;;21.78;60.53
48778;BME280;34578;0.000;0.000;2023-09-19T10:16:19;96764.34;;;21.82;60.71
48778;BME280;34578;0.000;0.000;2023-09-19T10:21:20;96751.59;;;21.80;60.61
48778;BME280;34578;0.000;0.000;2023-09-19T10:26:22;96758.38;;;21.81;60.71
48778;BME280;34578;0.000;0.000;2023-09-19T10:31:26;96754.16;;;21.80;60.73
48778;BME280;34578;0.000;0.000;2023-09-19T10:36:32;96749.88;;;21.82;60.83
48778;BME280;34578;0.000;0.000;2023-09-19T10:41:35;96738.00;;;21.81;60.75
48778;BME280;34578;0.000;0.000;2023-09-19T10:46:37;96743.97;;;21.80;60.90
48778;BME280;34578;0.000;0.000;2023-09-19T10:51:42;96737.16;;;21.81;60.08
48778;BME280;34578;0.000;0.000;2023-09-19T10:56:46;96739.69;;;21.82;60.72
48778;BME280;34578;0.000;0.000;2023-09-19T11:01:53;96741.41;;;21.82;60.82
48778;BME280;34578;0.000;0.000;2023-09-19T11:12:08;96733.75;;;21.83;60.91
48778;BME280;34578;0.000;0.000;2023-09-19T11:22:13;96730.34;;;21.81;60.96
48778;BME280;34578;0.000;0.000;2023-09-19T11:27:15;96726.94;;;21.82;60.90
48778;BME280;34578;0.000;0.000;2023-09-19T11:42:58;96720.16;;;21.81;60.98
48778;BME280;34578;0.000;0.000;2023-09-19T11:48:00;96717.59;;;21.81;60.91
48778;BME280;34578;0.000;0.000;2023-09-19T11:53:02;96723.56;;;21.83;60.76
48778;BME280;34578;0.000;0.000;2023-09-19T11:58:03;96718.47;;;21.83;60.89
48778;BME280;34578;0.000;0.000;2023-09-19T12:03:08;96707.41;;;21.81;60.98
48778;BME280;34578;0.000;0.000;2023-09-19T12:08:09;96708.25;;;21.83;61.12
48778;BME280;34578;0.000;0.000;2023-09-19T12:13:10;96706.53;;;21.82;61.07
48778;BME280;34578;0.000;0.000;2023-09-19T12:18:28;96697.22;;;21.83;61.05
48778;BME280;34578;0.000;0.000;2023-09-19T12:23:28;96699.75;;;21.84;61.75
48778;BME280;34578;0.000;0.000;2023-09-19T12:28:30;96691.25;;;21.82;61.14
48778;BME280;34578;0.000;0.000;2023-09-19T12:33:31;96673.44;;;21.81;61.00
48778;BME280;34578;0.000;0.000;2023-09-19T12:38:32;96681.91;;;21.83;60.93
48778;BME280;34578;0.000;0.000;2023-09-19T12:43:33;96677.69;;;21.83;60.78
48778;BME280;34578;0.000;0.000;2023-09-19T12:48:36;96668.34;;;21.81;61.20
48778;BME280;34578;0.000;0.000;2023-09-19T12:53:45;96666.63;;;21.81;62.18
48778;BME280;34578;0.000;0.000;2023-09-19T12:58:57;96662.38;;;21.83;61.70
48778;BME280;34578;0.000;0.000;2023-09-19T13:04:20;96657.28;;;21.83;62.05
48778;BME280;34578;0.000;0.000;2023-09-19T13:09:27;96647.09;;;21.82;61.59
48778;BME280;34578;0.000;0.000;2023-09-19T13:14:38;96636.13;;;21.77;61.41
48778;BME280;34578;0.000;0.000;2023-09-19T13:19:43;96643.69;;;21.81;61.46
48778;BME280;34578;0.000;0.000;2023-09-19T13:24:49;96633.50;;;21.81;61.40
48778;BME280;34578;0.000;0.000;2023-09-19T13:29:51;96628.41;;;21.81;61.17
48778;BME280;34578;0.000;0.000;2023-09-19T13:34:51;96632.63;;;21.84;61.37
48778;BME280;34578;0.000;0.000;2023-09-19T13:39:52;96619.06;;;21.82;61.48
48778;BME280;34578;0.000;0.000;2023-09-19T13:44:53;96623.31;;;21.81;61.74
48778;BME280;34578;0.000;0.000;2023-09-19T13:49:54;96621.59;;;21.83;61.62
48778;BME280;34578;0.000;0.000;2023-09-19T13:54:54;96615.63;;;21.84;61.39
48778;BME280;34578;0.000;0.000;2023-09-19T13:59:57;96604.59;;;21.82;61.25
48778;BME280;34578;0.000;0.000;2023-09-19T14:04:58;96605.44;;;21.84;61.15
48778;BME280;34578;0.000;0.000;2023-09-19T14:09:58;96598.66;;;21.83;60.76
48778;BME280;34578;0.000;0.000;2023-09-19T14:14:58;96596.88;;;21.87;58.75
48778;BME280;34578;0.000;0.000;2023-09-19T14:19:59;96601.16;;;21.86;60.51
48778;BME280;34578;0.000;0.000;2023-09-19T14:24:59;96591.84;;;21.82;60.87
48778;BME280;34578;0.000;0.000;2023-09-19T14:30:00;96587.59;;;21.84;60.45
48778;BME280;34578;0.000;0.000;2023-09-19T14:35:00;96589.28;;;21.84;60.50
48778;BME280;34578;0.000;0.000;2023-09-19T14:40:00;96579.22;;;21.76;59.67
48778;BME280;34578;0.000;0.000;2023-09-19T14:45:09;96577.44;;;21.81;58.97
48778;BME280;34578;0.000;0.000;2023-09-19T14:50:09;96578.28;;;21.80;60.76
48778;BME280;34578;0.000;0.000;2023-09-19T14:55:10;96579.16;;;21.79;60.70
48778;BME280;34578;0.000;0.000;2023-09-19T15:00:14;96572.38;;;21.78;61.01
48778;BME280;34578;0.000;0.000;2023-09-19T15:05:16;96570.66;;;21.79;60.62
48778;BME280;34578;0.000;0.000;2023-09-19T15:10:16;96561.34;;;21.78;60.88
48778;BME280;34578;0.000;0.000;2023-09-19T15:15:18;96565.63;;;21.77;60.73
48778;BME280;34578;0.000;0.000;2023-09-19T15:20:19;96567.28;;;21.78;60.57
48778;BME280;34578;0.000;0.000;2023-09-19T15:25:19;96569.84;;;21.77;60.71
48778;BME280;34578;0.000;0.000;2023-09-19T15:30:19;96573.22;;;21.79;60.71
48778;BME280;34578;0.000;0.000;2023-09-19T15:35:20;96574.94;;;21.77;60.86
48778;BME280;34578;0.000;0.000;2023-09-19T15:40:20;96575.81;;;21.77;60.69
48778;BME280;34578;0.000;0.000;2023-09-19T15:45:24;96567.34;;;21.75;60.93
48778;BME280;34578;0.000;0.000;2023-09-19T15:50:25;96568.16;;;21.77;60.71
48778;BME280;34578;0.000;0.000;2023-09-19T15:55:25;96565.63;;;21.74;60.93
48778;BME280;34578;0.000;0.000;2023-09-19T16:00:26;96561.47;;;21.70;61.02
48778;BME280;34578;0.000;0.000;2023-09-19T16:05:27;96558.13;;;21.65;60.96
48778;BME280;34578;0.000;0.000;2023-09-19T16:10:28;96560.63;;;21.70;60.78
48778;BME280;34578;0.000;0.000;2023-09-19T16:15:29;96570.06;;;21.65;59.05
48778;BME280;34578;0.000;0.000;2023-09-19T16:20:30;96562.34;;;21.68;60.58
48778;BME280;34578;0.000;0.000;2023-09-19T16:25:31;96557.19;;;21.72;60.47
48778;BME280;34578;0.000;0.000;2023-09-19T16:30:32;96561.41;;;21.75;60.64
48778;BME280;34578;0.000;0.000;2023-09-19T16:35:38;96562.28;;;21.72;60.37
48778;BME280;34578;0.000;0.000;2023-09-19T16:40:39;96555.44;;;21.74;60.05
48778;BME280;34578;0.000;0.000;2023-09-19T16:45:51;96554.63;;;21.74;60.36
48778;BME280;34578;0.000;0.000;2023-09-19T16:50:53;96557.16;;;21.75;60.45
48778;BME280;34578;0.000;0.000;2023-09-19T16:55:54;96559.72;;;21.74;60.53
48778;BME280;34578;0.000;0.000;2023-09-19T17:00:54;96567.34;;;21.75;60.71
48778;BME280;34578;0.000;0.000;2023-09-19T17:05:59;96560.59;;;21.71;60.50
48778;BME280;34578;0.000;0.000;2023-09-19T17:11:00;96575.84;;;21.74;60.36
48778;BME280;34578;0.000;0.000;2023-09-19T17:16:09;96586.88;;;21.75;60.54
48778;BME280;34578;0.000;0.000;2023-09-19T17:21:11;96584.41;;;21.70;60.65
48778;BME280;34578;0.000;0.000;2023-09-19T17:26:14;96595.38;;;21.75;60.58
48778;BME280;34578;0.000;0.000;2023-09-19T17:31:18;96592.84;;;21.75;60.68
48778;BME280;34578;0.000;0.000;2023-09-19T17:36:23;96600.50;;;21.74;60.60
48778;BME280;34578;0.000;0.000;2023-09-19T17:41:24;96591.19;;;21.71;60.70
48778;BME280;34578;0.000;0.000;2023-09-19T17:46:26;96596.28;;;21.71;60.70
48778;BME280;34578;0.000;0.000;2023-09-19T17:51:29;96597.06;;;21.75;60.54
48778;BME280;34578;0.000;0.000;2023-09-19T17:56:29;96611.47;;;21.77;60.60
48778;BME280;34578;0.000;0.000;2023-09-19T18:01:30;96611.47;;;21.77;60.47
48778;BME280;34578;0.000;0.000;2023-09-19T18:06:32;96606.38;;;21.77;59.33
48778;BME280;34578;0.000;0.000;2023-09-19T18:11:33;96619.13;;;21.77;58.73
48778;BME280;34578;0.000;0.000;2023-09-19T18:16:33;96611.47;;;21.77;58.54
48778;BME280;34578;0.000;0.000;2023-09-19T18:21:33;96616.59;;;21.77;57.93
48778;BME280;34578;0.000;0.000;2023-09-19T18:26:34;96622.50;;;21.78;59.92
48778;BME280;34578;0.000;0.000;2023-09-19T18:31:36;96630.19;;;21.76;59.95
48778;BME280;34578;0.000;0.000;2023-09-19T18:36:38;96636.13;;;21.77;59.31
48778;BME280;34578;0.000;0.000;2023-09-19T18:41:38;96637.78;;;21.78;59.84
48778;BME280;34578;0.000;0.000;2023-09-19T18:46:38;96636.09;;;21.80;60.00
48778;BME280;34578;0.000;0.000;2023-09-19T18:51:43;96642.81;;;21.84;59.69
48778;BME280;34578;0.000;0.000;2023-09-19T18:56:44;96624.25;;;21.76;60.15
48778;BME280;34578;0.000;0.000;2023-09-19T19:01:46;96649.50;;;21.91;61.01
48778;BME280;34578;0.000;0.000;2023-09-19T19:06:46;96656.31;;;21.90;59.98
48778;BME280;34578;0.000;0.000;2023-09-19T19:11:47;96660.53;;;21.91;60.44
48778;BME280;34578;0.000;0.000;2023-09-19T19:16:48;96665.63;;;21.91;60.42
48778;BME280;34578;0.000;0.000;2023-09-19T19:21:50;96663.94;;;21.93;60.33
48778;BME280;34578;0.000;0.000;2023-09-19T19:26:50;96670.72;;;21.94;60.50
48778;BME280;34578;0.000;0.000;2023-09-19T19:31:50;96669.03;;;21.93;60.38
48778;BME280;34578;0.000;0.000;2023-09-19T19:36:52;96670.78;;;21.88;60.44
48778;BME280;34578;0.000;0.000;2023-09-19T19:41:55;96682.63;;;21.92;60.50
48778;BME280;34578;0.000;0.000;2023-09-19T19:46:57;96692.84;;;21.92;60.41
48778;BME280;34578;0.000;0.000;2023-09-19T19:51:58;96692.84;;;21.92;60.56
48778;BME280;34578;0.000;0.000;2023-09-19T19:56:58;96689.44;;;21.90;60.58
48778;BME280;34578;0.000;0.000;2023-09-19T20:01:58;96689.50;;;21.87;60.53
48778;BME280;34578;0.000;0.000;2023-09-19T20:06:59;96686.09;;;21.88;60.44
48778;BME280;34578;0.000;0.000;2023-09-19T20:12:00;96693.72;;;21.88;60.47
48778;BME280;34578;0.000;0.000;2023-09-19T20:17:00;96689.50;;;21.87;60.53
48778;BME280;34578;0.000;0.000;2023-09-19T20:22:00;96692.88;;;21.89;60.60
48778;BME280;34578;0.000;0.000;2023-09-19T20:27:01;96692.88;;;21.89;60.48
48778;BME280;34578;0.000;0.000;2023-09-19T20:32:02;96690.31;;;21.89;60.52
48778;BME280;34578;0.000;0.000;2023-09-19T20:37:02;96684.41;;;21.87;60.55
48778;BME280;34578;0.000;0.000;2023-09-19T20:42:03;96692.91;;;21.86;60.56
48778;BME280;34578;0.000;0.000;2023-09-19T20:47:04;96683.53;;;21.87;60.58
48778;BME280;34578;0.000;0.000;2023-09-19T20:52:05;96685.25;;;21.88;60.41
48778;BME280;34578;0.000;0.000;2023-09-19T20:57:05;96682.72;;;21.86;60.55
48778;BME280;34578;0.000;0.000;2023-09-19T21:02:06;96683.53;;;21.87;60.53
48778;BME280;34578;0.000;0.000;2023-09-19T21:07:06;96689.50;;;21.87;60.98
48778;BME280;34578;0.000;0.000;2023-09-19T21:12:07;96688.69;;;21.85;60.89
48778;BME280;34578;0.000;0.000;2023-09-19T21:17:07;96686.97;;;21.86;61.13
48778;BME280;34578;0.000;0.000;2023-09-19T21:22:08;96684.44;;;21.84;60.87
48778;BME280;34578;0.000;0.000;2023-09-19T21:27:09;96678.56;;;21.81;60.77
48778;BME280;34578;0.000;0.000;2023-09-19T21:32:10;96687.03;;;21.81;60.83
48778;BME280;34578;0.000;0.000;2023-09-19T21:37:11;96679.38;;;21.81;60.73
48778;BME280;34578;0.000;0.000;2023-09-19T21:42:14;96681.94;;;21.81;60.77
48778;BME280;34578;0.000;0.000;2023-09-19T21:47:15;96680.25;;;21.80;60.75
48778;BME280;34578;0.000;0.000;2023-09-19T21:52:15;96674.31;;;21.80;60.75
48778;BME280;34578;0.000;0.000;2023-09-19T21:57:15;96672.59;;;21.80;60.63
48778;BME280;34578;0.000;0.000;2023-09-19T22:02:16;96665.81;;;21.79;60.67
48778;BME280;34578;0.000;0.000;2023-09-19T22:07:18;96675.16;;;21.79;60.82
48778;BME280;34578;0.000;0.000;2023-09-19T22:12:19;96659.97;;;21.71;60.92
48778;BME280;34578;0.000;0.000;2023-09-19T22:17:19;96659.91;;;21.77;60.74
48778;BME280;34578;0.000;0.000;2023-09-19T22:22:20;96663.28;;;21.79;60.74
48778;BME280;34578;0.000;0.000;2023-09-19T22:27:22;96652.22;;;21.79;60.78
48778;BME280;34578;0.000;0.000;2023-09-19T22:32:25;96645.44;;;21.78;60.78
48778;BME280;34578;0.000;0.000;2023-09-19T22:37:25;96650.53;;;21.79;60.35
48778;BME280;34578;0.000;0.000;2023-09-19T22:42:27;96648.84;;;21.78;60.77
48778;BME280;34578;0.000;0.000;2023-09-19T22:47:29;96643.81;;;21.75;60.50
48778;BME280;34578;0.000;0.000;2023-09-19T22:52:29;96639.53;;;21.77;60.66
48778;BME280;34578;0.000;0.000;2023-09-19T22:57:29;96636.97;;;21.77;60.78
48778;BME280;34578;0.000;0.000;2023-09-19T23:02:30;96636.13;;;21.77;60.56
48778;BME280;34578;0.000;0.000;2023-09-19T23:07:30;96634.44;;;21.76;60.68
48778;BME280;34578;0.000;0.000;2023-09-19T23:12:31;96634.44;;;21.77;60.75
48778;BME280;34578;0.000;0.000;2023-09-19T23:17:32;96636.97;;;21.77;60.71
48778;BME280;34578;0.000;0.000;2023-09-19T23:22:36;96631.03;;;21.77;60.73
48778;BME280;34578;0.000;0.000;2023-09-19T23:27:36;96626.81;;;21.74;60.63
48778;BME280;34578;0.000;0.000;2023-09-19T23:32:37;96628.50;;;21.75;60.67
48778;BME280;34578;0.000;0.000;2023-09-19T23:37:37;96621.69;;;21.76;60.59
48778;BME280;34578;0.000;0.000;2023-09-19T23:42:37;96634.44;;;21.76;60.44
48778;BME280;34578;0.000;0.000;2023-09-19T23:47:40;96627.66;;;21.75;60.27
48778;BME280;34578;0.000;0.000;2023-09-19T23:52:41;96629.34;;;21.74;60.69
48778;BME280;34578;0.000;0.000;2023-09-19T23:57:42;96626.81;;;21.74;60.57
